Port Byron, Illinois
Current Conditions -  °F | °C
As of 10:52 AM on Friday 31 Oct 2014 (Local Time) from KDVN Reporting Station
Clear Clear  
Wind Chill: 28°   Ceiling: Unl
Heat Index: 39°   Visibility: 10mi
Dew Point: 20°   Wind: 28mph
Humidity: 46%   Direction: 10°N
Pressure: 30.33"   Gusts: 38mph
Location:  41.61°N, 90.34°W
Report Text: KDVN 311552Z AUTO 01024G33KT 10SM CLR 04/M07 A3033 RMK AO2 PK WND 01033/1548 SLP277 T00391067 TSNO
Loading
Personal Weather Stations






























Interactive Weather Map
Tropical Storm Tracking
New forecast layout! Learn more

10-Day Weather Forecast

Advertisements
Track Severe Weather on mobile